createdAt,value
2018-08-28T00:00:14.375Z,0.93
2018-08-28T00:02:40.858Z,1.00
2018-08-28T00:05:07.313Z,0.90
2018-08-28T00:07:33.778Z,0.90
2018-08-28T00:10:00.224Z,0.90
2018-08-28T00:12:27.389Z,0.83
2018-08-28T00:14:54.234Z,1.00
2018-08-28T00:17:20.701Z,0.90
2018-08-28T00:19:47.199Z,0.83
2018-08-28T00:22:13.656Z,1.10
2018-08-28T00:24:40.140Z,0.80
2018-08-28T00:27:06.601Z,0.87
2018-08-28T00:29:33.076Z,1.00
2018-08-28T00:31:59.555Z,1.00
2018-08-28T00:34:26.036Z,0.90
2018-08-28T00:36:52.493Z,0.93
2018-08-28T00:39:18.916Z,0.80
2018-08-28T00:41:45.350Z,0.90
2018-08-28T00:44:11.806Z,0.80
2018-08-28T00:46:38.324Z,0.90
2018-08-28T00:49:05.431Z,0.83
2018-08-28T00:51:31.932Z,1.10
2018-08-28T00:53:58.386Z,0.90
2018-08-28T00:56:25.392Z,0.87
2018-08-28T00:58:51.855Z,0.80
2018-08-28T01:01:18.322Z,0.97
2018-08-28T01:03:44.800Z,0.90
2018-08-28T01:06:11.357Z,0.90
2018-08-28T01:08:37.806Z,0.93
2018-08-28T01:11:04.288Z,1.10
2018-08-28T01:13:30.720Z,1.03
2018-08-28T01:15:57.180Z,1.03
2018-08-28T01:18:23.612Z,0.90
2018-08-28T01:20:50.042Z,0.90
2018-08-28T01:23:16.516Z,0.90
2018-08-28T01:25:43.024Z,0.80
2018-08-28T01:28:09.510Z,1.03
2018-08-28T01:30:35.991Z,1.00
2018-08-28T01:33:04.236Z,0.90
2018-08-28T01:35:30.792Z,0.90
2018-08-28T01:37:57.268Z,0.93
2018-08-28T01:40:23.796Z,1.00
2018-08-28T01:42:50.286Z,1.00
2018-08-28T01:45:16.752Z,0.90
2018-08-28T01:47:43.224Z,1.03
2018-08-28T01:50:09.684Z,1.10
2018-08-28T01:52:36.152Z,1.00
2018-08-28T01:55:02.634Z,0.97
2018-08-28T01:57:29.075Z,1.10
2018-08-28T01:59:55.528Z,1.07
2018-08-28T02:02:21.992Z,1.00
2018-08-28T02:04:48.452Z,0.90
2018-08-28T02:07:14.924Z,0.83
2018-08-28T02:09:41.381Z,0.90
2018-08-28T02:12:07.826Z,1.10
2018-08-28T02:14:34.286Z,1.00
2018-08-28T02:17:00.746Z,1.00
2018-08-28T02:19:27.774Z,0.90
2018-08-28T02:21:54.250Z,0.80
2018-08-28T02:24:20.718Z,0.80
2018-08-28T02:26:47.342Z,0.90
2018-08-28T02:29:15.511Z,0.90
2018-08-28T02:31:41.995Z,0.90
2018-08-28T02:34:08.500Z,1.00
2018-08-28T02:36:35.034Z,1.00
2018-08-28T02:39:01.851Z,0.90
2018-08-28T02:41:28.430Z,0.80
2018-08-28T02:43:54.882Z,0.80
2018-08-28T02:46:21.329Z,0.90
2018-08-28T02:48:48.455Z,0.93
2018-08-28T02:51:14.912Z,0.90
2018-08-28T02:53:41.387Z,0.80
2018-08-28T02:56:07.870Z,0.90
2018-08-28T02:58:34.317Z,1.07
2018-08-28T03:01:00.800Z,1.03
2018-08-28T03:03:27.273Z,1.20
2018-08-28T03:05:53.747Z,0.77
2018-08-28T03:08:20.228Z,0.80
2018-08-28T03:10:46.769Z,0.90
2018-08-28T03:13:13.275Z,1.10
2018-08-28T03:15:39.886Z,1.07
2018-08-28T03:18:06.303Z,0.73
2018-08-28T03:20:32.815Z,0.90
2018-08-28T03:22:59.324Z,0.90
2018-08-28T03:25:25.811Z,1.00
2018-08-28T03:27:52.300Z,0.90
2018-08-28T03:30:18.753Z,1.10
2018-08-28T03:32:45.219Z,1.00
2018-08-28T03:35:11.707Z,1.00
2018-08-28T03:37:38.197Z,0.90
2018-08-28T03:40:04.664Z,1.10
2018-08-28T03:42:31.130Z,0.93
2018-08-28T03:44:57.612Z,1.00
2018-08-28T03:47:24.069Z,0.80
2018-08-28T03:49:50.561Z,1.00
2018-08-28T03:52:17.035Z,0.73
2018-08-28T03:54:43.559Z,0.90
2018-08-28T03:57:09.997Z,0.80
2018-08-28T03:59:36.449Z,0.80
2018-08-28T04:02:03.471Z,1.00
2018-08-28T04:04:29.953Z,1.00
2018-08-28T04:06:56.418Z,0.90
2018-08-28T04:09:22.848Z,0.83
2018-08-28T04:11:49.316Z,1.00
2018-08-28T04:14:15.775Z,0.93
2018-08-28T04:16:42.234Z,1.10
2018-08-28T04:19:27.901Z,1.00
2018-08-28T04:21:54.385Z,0.83
2018-08-28T04:24:20.839Z,0.90
2018-08-28T04:26:47.282Z,0.97
2018-08-28T04:29:14.198Z,1.10
2018-08-28T04:31:40.669Z,1.10
2018-08-28T04:34:07.159Z,0.90
2018-08-28T04:36:33.672Z,0.87
2018-08-28T04:39:00.779Z,0.87
2018-08-28T04:41:27.272Z,0.90
2018-08-28T04:43:53.703Z,0.90
2018-08-28T04:46:20.161Z,0.80
2018-08-28T04:48:46.606Z,1.00
2018-08-28T04:51:13.182Z,0.90
2018-08-28T04:53:39.677Z,1.10
2018-08-28T04:56:06.114Z,0.90
2018-08-28T04:58:32.573Z,0.90
2018-08-28T05:00:59.035Z,0.80
2018-08-28T05:03:25.520Z,0.90
2018-08-28T05:05:51.995Z,0.97
2018-08-28T05:08:18.513Z,1.10
2018-08-28T05:10:44.952Z,1.00
2018-08-28T05:13:11.406Z,1.00
2018-08-28T05:15:38.519Z,0.93
2018-08-28T05:18:05.023Z,0.90
2018-08-28T05:20:31.493Z,1.20
2018-08-28T05:22:57.947Z,0.80
2018-08-28T05:25:24.443Z,0.90
2018-08-28T05:27:50.953Z,0.87
2018-08-28T05:30:18.102Z,1.37
2018-08-28T05:32:44.543Z,1.00
2018-08-28T05:35:11.065Z,1.00
2018-08-28T05:37:37.531Z,1.00
2018-08-28T05:40:03.981Z,1.00
2018-08-28T05:42:30.486Z,0.80
2018-08-28T05:44:57.011Z,0.80
2018-08-28T05:47:23.559Z,1.00
2018-08-28T05:49:50.000Z,0.90
2018-08-28T05:52:16.481Z,0.97
2018-08-28T05:54:43.031Z,1.00
2018-08-28T05:57:09.499Z,0.90
2018-08-28T05:59:36.165Z,0.90
2018-08-28T06:02:02.648Z,1.03
2018-08-28T06:04:29.109Z,1.10
2018-08-28T06:06:55.585Z,0.83
2018-08-28T06:09:22.054Z,0.77
2018-08-28T06:11:48.561Z,0.90
2018-08-28T06:14:15.076Z,1.20
2018-08-28T06:16:41.681Z,0.90
2018-08-28T06:19:08.201Z,1.07
2018-08-28T06:21:34.652Z,1.00
2018-08-28T06:24:01.815Z,1.00
2018-08-28T06:26:28.353Z,1.30
2018-08-28T06:28:54.943Z,1.20
2018-08-28T06:31:21.421Z,1.07
2018-08-28T06:33:47.939Z,0.90
2018-08-28T06:36:14.361Z,0.90
2018-08-28T06:38:40.839Z,1.00
2018-08-28T06:41:07.292Z,0.80
2018-08-28T06:43:33.824Z,1.00
2018-08-28T06:46:00.233Z,1.13
2018-08-28T06:48:26.707Z,1.00
2018-08-28T06:50:53.348Z,0.80
2018-08-28T06:53:19.923Z,0.90
2018-08-28T06:55:46.406Z,1.13
2018-08-28T06:58:13.015Z,1.20
2018-08-28T07:00:39.511Z,0.80
2018-08-28T07:03:05.989Z,1.10
2018-08-28T07:05:32.551Z,1.00
2018-08-28T07:07:59.283Z,0.93
2018-08-28T07:10:25.719Z,1.17
2018-08-28T07:12:52.192Z,0.90
2018-08-28T07:15:18.984Z,1.00
2018-08-28T07:17:45.459Z,0.90
2018-08-28T07:20:11.969Z,0.80
2018-08-28T07:22:38.424Z,1.10
2018-08-28T07:25:04.878Z,0.97
2018-08-28T07:27:31.396Z,1.10
2018-08-28T07:29:57.869Z,0.90
2018-08-28T07:32:24.340Z,1.00
2018-08-28T07:34:50.816Z,1.00
2018-08-28T07:37:17.279Z,0.73
2018-08-28T07:39:43.745Z,1.00
2018-08-28T07:42:10.398Z,1.10
2018-08-28T07:44:36.886Z,1.10
2018-08-28T07:47:03.355Z,0.90
2018-08-28T07:49:29.924Z,1.00
2018-08-28T07:51:56.364Z,1.13
2018-08-28T07:54:22.892Z,0.97
2018-08-28T07:56:49.454Z,1.00
2018-08-28T07:59:15.934Z,0.90
2018-08-28T08:01:42.390Z,0.93
2018-08-28T08:04:08.846Z,1.17
2018-08-28T08:06:35.302Z,1.07
2018-08-28T08:09:01.775Z,1.17
2018-08-28T08:11:28.285Z,1.07
2018-08-28T08:13:54.758Z,1.07
2018-08-28T08:16:21.276Z,1.13
2018-08-28T08:18:47.746Z,1.10
2018-08-28T08:21:14.188Z,1.00
2018-08-28T08:23:40.628Z,1.10
2018-08-28T08:26:07.079Z,0.97
2018-08-28T08:28:33.572Z,1.03
2018-08-28T08:31:00.294Z,1.20
2018-08-28T08:33:26.780Z,0.90
2018-08-28T08:35:53.275Z,1.27
2018-08-28T08:38:19.751Z,1.10
2018-08-28T08:40:46.241Z,0.90
2018-08-28T08:43:12.688Z,0.90
2018-08-28T08:45:39.152Z,0.97
2018-08-28T08:48:05.637Z,1.10
2018-08-28T08:50:32.113Z,0.90
2018-08-28T08:52:58.581Z,0.90
2018-08-28T08:55:25.188Z,1.13
2018-08-28T08:57:51.627Z,1.00
2018-08-28T09:00:18.182Z,1.17
2018-08-28T09:02:44.631Z,1.20
2018-08-28T09:05:11.069Z,0.90
2018-08-28T09:07:37.531Z,0.97
2018-08-28T09:10:04.020Z,1.00
2018-08-28T09:12:30.491Z,1.07
2018-08-28T09:14:56.999Z,0.93
2018-08-28T09:17:23.531Z,1.10
2018-08-28T09:19:50.026Z,1.07
2018-08-28T09:22:16.523Z,1.10
2018-08-28T09:24:43.055Z,0.90
2018-08-28T09:27:09.524Z,1.03
2018-08-28T09:29:36.058Z,1.23
2018-08-28T09:32:02.905Z,1.10
2018-08-28T09:34:29.437Z,1.30
2018-08-28T09:36:55.921Z,1.00
2018-08-28T09:39:22.356Z,1.10
2018-08-28T09:41:48.814Z,1.00
2018-08-28T09:44:15.337Z,1.17
2018-08-28T09:46:41.933Z,1.30
2018-08-28T09:51:46.965Z,1.17
2018-08-28T09:54:13.451Z,1.20
2018-08-28T09:56:39.920Z,1.20
2018-08-28T09:59:07.381Z,1.20
2018-08-28T10:01:46.530Z,1.10
2018-08-28T10:04:14.041Z,1.10
2018-08-28T10:06:40.492Z,1.07
2018-08-28T10:09:07.405Z,1.20
2018-08-28T10:11:33.893Z,1.30
2018-08-28T10:14:00.385Z,1.10
2018-08-28T10:16:26.882Z,0.90
2018-08-28T10:18:53.342Z,0.90
2018-08-28T10:21:19.799Z,1.20
2018-08-28T10:23:46.298Z,1.20
2018-08-28T10:26:12.834Z,1.10
2018-08-28T10:28:39.319Z,1.17
2018-08-28T10:31:05.814Z,1.33
2018-08-28T10:33:32.283Z,0.93
2018-08-28T10:35:58.743Z,1.20
2018-08-28T10:38:25.217Z,1.20
2018-08-28T10:40:51.677Z,1.20
2018-08-28T10:43:18.183Z,1.00
2018-08-28T10:45:44.674Z,1.10
2018-08-28T10:48:11.259Z,1.40
2018-08-28T10:50:37.692Z,1.10
2018-08-28T10:53:04.344Z,1.20
2018-08-28T10:55:30.697Z,1.00
2018-08-28T10:57:57.166Z,0.90
2018-08-28T11:00:23.654Z,0.93
2018-08-28T11:02:50.140Z,1.20
2018-08-28T11:05:16.693Z,1.00
2018-08-28T11:07:43.186Z,1.30
2018-08-28T11:10:10.092Z,1.20
2018-08-28T11:12:36.587Z,1.30
2018-08-28T11:15:03.031Z,1.00
2018-08-28T11:17:29.633Z,1.10
2018-08-28T11:20:03.645Z,1.20
2018-08-28T11:22:30.107Z,1.07
2018-08-28T11:24:57.070Z,1.30
2018-08-28T11:27:23.566Z,1.20
2018-08-28T11:29:50.010Z,0.90
2018-08-28T11:32:16.511Z,1.23
2018-08-28T11:34:42.954Z,1.20
2018-08-28T11:37:09.436Z,1.17
2018-08-28T11:39:35.942Z,1.10
2018-08-28T11:42:02.380Z,1.00
2018-08-28T11:44:28.868Z,1.30
2018-08-28T11:46:55.350Z,1.43
2018-08-28T11:49:21.862Z,1.17
2018-08-28T11:51:48.335Z,1.10
2018-08-28T11:54:14.785Z,1.00
2018-08-28T11:56:41.277Z,1.07
2018-08-28T11:59:07.723Z,1.30
2018-08-28T12:01:34.907Z,1.13
2018-08-28T12:04:01.397Z,1.20
2018-08-28T12:06:27.886Z,1.07
2018-08-28T12:08:54.382Z,1.00
2018-08-28T12:11:20.845Z,1.10
2018-08-28T12:13:47.319Z,1.20
2018-08-28T12:16:13.808Z,1.00
2018-08-28T12:18:40.294Z,1.17
2018-08-28T12:21:06.789Z,1.30
2018-08-28T12:23:33.258Z,0.90
2018-08-28T12:25:59.739Z,1.00
2018-08-28T12:28:26.226Z,1.30
2018-08-28T12:30:52.731Z,1.20
2018-08-28T12:33:19.242Z,1.17
2018-08-28T12:35:45.688Z,1.30
2018-08-28T12:38:12.148Z,1.20
2018-08-28T12:40:38.624Z,1.07
2018-08-28T12:43:05.113Z,1.40
2018-08-28T12:45:31.598Z,1.23
2018-08-28T12:47:58.058Z,1.30
2018-08-28T12:50:24.566Z,1.00
2018-08-28T12:52:51.021Z,1.30
2018-08-28T12:55:17.502Z,1.50
2018-08-28T12:57:43.948Z,1.20
2018-08-28T13:00:10.477Z,1.20
2018-08-28T13:02:36.958Z,1.43
2018-08-28T13:05:03.422Z,1.20
2018-08-28T13:07:30.093Z,1.23
2018-08-28T13:09:56.983Z,1.30
2018-08-28T13:12:23.417Z,1.20
2018-08-28T13:14:50.091Z,1.20
2018-08-28T13:17:16.462Z,1.20
2018-08-28T13:19:42.936Z,1.30
2018-08-28T13:22:09.411Z,1.30
2018-08-28T13:24:36.109Z,1.20
2018-08-28T13:27:02.925Z,1.50
2018-08-28T13:29:29.672Z,1.00
2018-08-28T13:31:56.138Z,1.40
2018-08-28T13:34:22.673Z,1.33
2018-08-28T13:36:49.125Z,1.60
2018-08-28T13:39:16.041Z,1.07
2018-08-28T13:41:42.509Z,1.30
2018-08-28T13:44:09.413Z,1.20
2018-08-28T13:46:35.886Z,1.00
2018-08-28T13:49:02.358Z,1.07
2018-08-28T13:51:28.889Z,1.40
2018-08-28T13:53:55.538Z,1.43
2018-08-28T13:56:21.973Z,1.13
2018-08-28T13:58:49.046Z,1.00
2018-08-28T14:01:15.531Z,1.30
2018-08-28T14:03:42.966Z,1.33
2018-08-28T14:06:09.435Z,1.30
2018-08-28T14:08:36.452Z,1.10
2018-08-28T14:11:02.911Z,1.20
2018-08-28T14:13:29.578Z,1.27
2018-08-28T14:15:55.949Z,1.30
2018-08-28T14:18:22.391Z,1.40
2018-08-28T14:20:48.850Z,1.43
2018-08-28T14:23:15.341Z,1.33
2018-08-28T14:25:41.838Z,1.10
2018-08-28T14:28:08.338Z,1.50
2018-08-28T14:30:34.817Z,1.40
2018-08-28T14:33:01.306Z,1.07
2018-08-28T14:35:27.817Z,1.50
2018-08-28T14:37:54.248Z,1.40
2018-08-28T14:40:21.367Z,1.17
2018-08-28T14:42:47.922Z,1.23
2018-08-28T14:45:14.309Z,1.30
2018-08-28T14:47:40.801Z,1.40
2018-08-28T14:50:09.160Z,1.27
2018-08-28T14:52:35.582Z,1.17
2018-08-28T14:55:02.094Z,1.10
2018-08-28T14:57:28.539Z,1.20
2018-08-28T14:59:55.667Z,1.50
2018-08-28T15:02:22.138Z,1.20
2018-08-28T15:04:48.663Z,1.37
2018-08-28T15:07:15.132Z,1.23
2018-08-28T15:09:41.585Z,1.37
2018-08-28T15:12:08.093Z,1.20
2018-08-28T15:14:34.561Z,1.00
2018-08-28T15:17:01.072Z,1.50
2018-08-28T15:19:28.180Z,1.20
2018-08-28T15:21:54.632Z,1.40
2018-08-28T15:24:21.364Z,1.07
2018-08-28T15:26:47.848Z,1.37
2018-08-28T15:29:14.555Z,1.10
2018-08-28T15:31:41.034Z,1.23
2018-08-28T15:34:07.493Z,1.20
2018-08-28T15:36:34.004Z,1.20
2018-08-28T15:39:01.323Z,1.30
2018-08-28T15:41:27.880Z,1.40
2018-08-28T15:43:54.399Z,1.23
2018-08-28T15:46:20.857Z,1.43
2018-08-28T15:48:47.355Z,1.50
2018-08-28T15:51:13.878Z,1.40
2018-08-28T15:53:40.352Z,1.37
2018-08-28T15:56:06.830Z,1.10
2018-08-28T15:58:33.282Z,1.07
2018-08-28T16:01:00.391Z,1.27
2018-08-28T16:03:27.130Z,1.30
2018-08-28T16:05:53.614Z,1.20
2018-08-28T16:08:20.112Z,1.03
2018-08-28T16:10:46.585Z,1.50
2018-08-28T16:13:13.076Z,1.20
2018-08-28T16:15:39.540Z,1.13
2018-08-28T16:18:06.041Z,1.10
2018-08-28T16:20:32.800Z,1.10
2018-08-28T16:23:05.839Z,1.10
2018-08-28T16:25:32.316Z,1.17
2018-08-28T16:27:58.792Z,1.10
2018-08-28T16:30:25.260Z,1.60
2018-08-28T16:32:51.772Z,2.03
2018-08-28T16:35:18.252Z,2.67
2018-08-28T16:37:45.037Z,2.57
2018-08-28T16:40:11.513Z,2.80
2018-08-28T16:42:38.284Z,2.77
2018-08-28T16:45:05.253Z,3.50
2018-08-28T16:47:32.019Z,3.17
2018-08-28T16:49:58.533Z,2.73
2018-08-28T16:52:25.017Z,2.93
2018-08-28T16:54:51.487Z,2.40
2018-08-28T16:57:17.966Z,3.03
2018-08-28T16:59:44.488Z,2.83
2018-08-28T17:02:11.004Z,3.03
2018-08-28T17:04:37.490Z,3.03
2018-08-28T17:07:03.963Z,3.37
2018-08-28T17:09:30.903Z,2.90
2018-08-28T17:11:57.486Z,3.60
2018-08-28T17:14:23.926Z,2.80
2018-08-28T17:16:50.352Z,3.63
2018-08-28T17:19:17.108Z,2.63
2018-08-28T17:21:43.604Z,3.87
2018-08-28T17:24:10.760Z,3.40
2018-08-28T17:26:37.311Z,2.90
2018-08-28T17:29:03.816Z,2.73
2018-08-28T17:31:30.300Z,3.50
2018-08-28T17:33:56.861Z,3.10
2018-08-28T17:36:23.456Z,2.80
2018-08-28T17:38:49.991Z,3.03
2018-08-28T17:41:16.566Z,2.70
2018-08-28T17:43:43.086Z,3.03
2018-08-28T17:46:09.749Z,3.00
2018-08-28T17:48:37.497Z,2.67
2018-08-28T17:51:04.013Z,3.00
2018-08-28T17:53:30.485Z,3.03
2018-08-28T17:55:57.590Z,3.07
2018-08-28T17:58:24.098Z,2.90
2018-08-28T18:00:50.583Z,3.40
2018-08-28T18:03:17.052Z,3.03
2018-08-28T18:05:43.560Z,2.93
2018-08-28T18:08:10.697Z,3.57
2018-08-28T18:10:37.252Z,2.50
2018-08-28T18:13:03.730Z,3.00
2018-08-28T18:15:30.242Z,2.87
2018-08-28T18:17:56.691Z,2.83
2018-08-28T18:20:23.155Z,3.13
2018-08-28T18:22:49.641Z,2.97
2018-08-28T18:25:16.112Z,2.63
2018-08-28T18:27:42.592Z,3.37
2018-08-28T18:30:09.346Z,2.97
2018-08-28T18:32:36.141Z,2.60
2018-08-28T18:35:02.673Z,2.87
2018-08-28T18:37:29.191Z,3.03
2018-08-28T18:39:55.689Z,2.63
2018-08-28T18:42:22.455Z,2.37
2018-08-28T18:44:48.951Z,3.00
2018-08-28T18:47:15.739Z,2.60
2018-08-28T18:49:42.253Z,2.97
2018-08-28T18:52:08.783Z,2.90
2018-08-28T18:54:35.873Z,2.93
2018-08-28T18:57:02.358Z,2.70
2018-08-28T18:59:28.845Z,2.63
2018-08-28T19:01:55.461Z,2.93
2018-08-28T19:04:21.967Z,2.87
2018-08-28T19:06:48.479Z,2.73
2018-08-28T19:09:14.963Z,3.07
2018-08-28T19:11:41.445Z,2.40
2018-08-28T19:14:07.933Z,2.40
2018-08-28T19:16:34.424Z,2.70
2018-08-28T19:19:01.456Z,2.87
2018-08-28T19:21:27.963Z,2.90
2018-08-28T19:23:54.480Z,2.37
2018-08-28T19:26:21.861Z,2.80
2018-08-28T19:28:48.985Z,2.70
2018-08-28T19:31:15.594Z,2.00
2018-08-28T19:33:42.074Z,3.00
2018-08-28T19:36:08.636Z,2.50
2018-08-28T19:38:35.369Z,2.67
2018-08-28T19:41:01.901Z,2.57
2018-08-28T19:43:28.460Z,2.73
2018-08-28T19:45:54.908Z,3.47
2018-08-28T19:48:21.488Z,2.50
2018-08-28T19:50:47.941Z,2.77
2018-08-28T19:53:14.475Z,2.20
2018-08-28T19:55:41.021Z,2.87
2018-08-28T19:58:07.519Z,2.53
2018-08-28T20:00:34.017Z,2.40
2018-08-28T20:03:00.505Z,3.27
2018-08-28T20:05:27.240Z,2.70
2018-08-28T20:07:53.978Z,2.87
2018-08-28T20:10:20.448Z,2.37
2018-08-28T20:12:46.898Z,2.67
2018-08-28T20:15:13.707Z,2.43
2018-08-28T20:17:40.812Z,2.47
2018-08-28T20:20:07.414Z,2.50
2018-08-28T20:22:34.221Z,2.30
2018-08-28T20:25:00.674Z,2.80
2018-08-28T20:27:27.224Z,2.53
2018-08-28T20:29:53.750Z,2.43
2018-08-28T20:32:20.160Z,2.33
2018-08-28T20:34:46.624Z,2.20
2018-08-28T20:37:13.251Z,2.90
2018-08-28T20:39:39.675Z,2.43
2018-08-28T20:42:06.132Z,2.20
2018-08-28T20:44:32.712Z,2.50
2018-08-28T20:46:59.183Z,2.50
2018-08-28T20:49:26.032Z,2.93
2018-08-28T20:51:52.477Z,2.47
2018-08-28T20:54:18.951Z,2.40
2018-08-28T20:56:45.410Z,2.40
2018-08-28T20:59:11.878Z,2.30
2018-08-28T21:01:38.538Z,2.83
2018-08-28T21:04:05.001Z,2.10
2018-08-28T21:06:31.530Z,2.47
2018-08-28T21:08:58.403Z,2.43
2018-08-28T21:11:24.874Z,2.53
2018-08-28T21:13:51.332Z,2.07
2018-08-28T21:16:17.784Z,2.13
2018-08-28T21:18:44.266Z,2.30
2018-08-28T21:21:10.769Z,2.27
2018-08-28T21:23:37.337Z,2.40
2018-08-28T21:26:03.833Z,2.33
2018-08-28T21:28:30.327Z,2.07
2018-08-28T21:30:57.461Z,2.47
2018-08-28T21:33:23.943Z,2.43
2018-08-28T21:35:50.527Z,2.23
2018-08-28T21:38:16.935Z,2.40
2018-08-28T21:40:43.396Z,2.67
2018-08-28T21:43:09.875Z,2.20
2018-08-28T21:45:36.361Z,2.50
2018-08-28T21:48:03.124Z,2.63
2018-08-28T21:50:29.607Z,2.70
2018-08-28T21:52:56.193Z,2.43
2018-08-28T21:55:22.658Z,2.27
2018-08-28T21:57:49.132Z,2.10
2018-08-28T22:00:16.294Z,2.40
2018-08-28T22:02:42.791Z,2.00
2018-08-28T22:05:09.879Z,2.33
2018-08-28T22:07:39.749Z,2.30
2018-08-28T22:10:06.259Z,2.30
2018-08-28T22:12:32.975Z,2.07
2018-08-28T22:14:59.536Z,2.50
2018-08-28T22:17:26.031Z,2.17
2018-08-28T22:19:52.635Z,1.97
2018-08-28T22:22:19.284Z,2.53
2018-08-28T22:24:45.736Z,2.10
2018-08-28T22:27:12.229Z,2.57
2018-08-28T22:29:38.711Z,2.30
2018-08-28T22:32:05.197Z,2.23
2018-08-28T22:34:31.695Z,2.20
2018-08-28T22:36:58.157Z,2.17
2018-08-28T22:39:24.678Z,2.20
2018-08-28T22:41:51.113Z,2.10
2018-08-28T22:44:17.657Z,2.10
2018-08-28T22:46:44.132Z,2.20
2018-08-28T22:49:11.535Z,2.73
2018-08-28T22:51:37.991Z,2.00
2018-08-28T22:54:04.481Z,1.90
2018-08-28T22:56:30.960Z,2.77
2018-08-28T22:58:58.413Z,2.40
2018-08-28T23:01:25.295Z,1.97
2018-08-28T23:03:51.756Z,1.80
2018-08-28T23:06:18.216Z,2.20
2018-08-28T23:08:44.652Z,2.37
2018-08-28T23:11:11.096Z,2.03
2018-08-28T23:13:37.559Z,1.90
2018-08-28T23:16:04.084Z,2.67
2018-08-28T23:18:30.535Z,2.63
2018-08-28T23:20:56.996Z,1.67
2018-08-28T23:23:23.429Z,1.80
2018-08-28T23:25:49.931Z,2.10
2018-08-28T23:28:16.480Z,2.43
2018-08-28T23:30:43.070Z,2.23
2018-08-28T23:33:09.508Z,2.07
2018-08-28T23:35:35.968Z,2.20
2018-08-28T23:38:02.444Z,2.27
2018-08-28T23:40:28.977Z,2.47
2018-08-28T23:42:55.430Z,2.47
2018-08-28T23:45:21.922Z,2.40
2018-08-28T23:47:48.365Z,2.33
2018-08-28T23:50:14.806Z,2.20
2018-08-28T23:52:41.914Z,2.47
2018-08-28T23:55:08.400Z,1.80
2018-08-28T23:57:34.896Z,2.27
